Time;durP1;ratioP1;P1;durP2;ratioP2;P2;SDS_P1;SDS_P2;PMS_P1;PMS_P2;Temp;Humidity;BMP_temperature;BMP_pressure;BME280_temperature;BME280_humidity;BME280_pressure;Samples;Min_cycle;Max_cycle;Signal;HPM_P1;HPM_P2
2024/01/29 00:01:19;;;;;;;7.57;3.28;;;;;;;-1.16;100.00;98474.34;5036167;28;20044;-57
2024/01/29 00:03:46;;;;;;;4.57;2.42;;;;;;;-1.14;100.00;98479.53;5048395;28;20044;-57
2024/01/29 00:06:13;;;;;;;6.72;2.80;;;;;;;-1.35;100.00;98470.00;5034639;28;20045;-57
2024/01/29 00:08:39;;;;;;;5.93;2.95;;;;;;;-1.34;100.00;98471.66;5039447;28;20385;-57
2024/01/29 00:11:06;;;;;;;4.78;2.78;;;;;;;-1.32;100.00;98478.50;5035282;28;20091;-55
2024/01/29 00:13:33;;;;;;;6.20;2.88;;;;;;;-1.26;100.00;98471.75;5047015;28;20052;-56
2024/01/29 00:16:00;;;;;;;5.65;2.45;;;;;;;-1.26;100.00;98470.94;5041454;28;20072;-54
2024/01/29 00:18:27;;;;;;;5.93;3.28;;;;;;;-1.30;100.00;98478.34;5047736;28;20040;-55
2024/01/29 00:20:53;;;;;;;6.80;3.15;;;;;;;-1.32;100.00;98475.00;5041446;28;20048;-56
2024/01/29 00:23:20;;;;;;;6.82;3.30;;;;;;;-1.34;100.00;98475.16;5046240;28;20053;-52
2024/01/29 00:25:46;;;;;;;4.43;2.83;;;;;;;-1.36;100.00;98470.97;5040475;28;20682;-56
2024/01/29 00:28:13;;;;;;;8.30;3.30;;;;;;;-1.35;100.00;98480.63;5035845;28;20052;-54
2024/01/29 00:30:39;;;;;;;5.65;2.72;;;;;;;-1.36;100.00;98478.94;5044169;28;20044;-57
2024/01/29 00:33:06;;;;;;;6.10;3.05;;;;;;;-1.39;100.00;98487.22;5036605;28;20102;-56
2024/01/29 00:35:32;;;;;;;6.90;3.00;;;;;;;-1.47;100.00;98483.47;5052646;28;20467;-54
2024/01/29 00:37:59;;;;;;;6.63;2.78;;;;;;;-1.42;100.00;98480.38;5036866;28;20047;-56
2024/01/29 00:40:26;;;;;;;5.13;2.33;;;;;;;-1.53;100.00;98473.44;5052738;28;20048;-56
2024/01/29 00:42:52;;;;;;;8.38;3.10;;;;;;;-1.59;100.00;98472.19;5040957;28;20732;-52
2024/01/29 00:45:20;;;;;;;7.93;3.25;;;;;;;-1.52;100.00;98477.75;5043380;28;20049;-53
2024/01/29 00:47:47;;;;;;;5.75;2.88;;;;;;;-1.50;100.00;98481.13;5049821;28;20132;-56
2024/01/29 00:50:13;;;;;;;4.97;2.83;;;;;;;-1.47;100.00;98472.81;5047121;28;20044;-52
2024/01/29 00:52:40;;;;;;;4.63;2.60;;;;;;;-1.66;100.00;98480.91;5042945;28;20051;-56
2024/01/29 00:55:06;;;;;;;5.18;2.75;;;;;;;-1.70;100.00;98475.88;5047782;28;20044;-52
2024/01/29 00:57:33;;;;;;;6.18;2.67;;;;;;;-1.72;100.00;98474.34;5039325;28;20033;-55
2024/01/29 01:00:00;;;;;;;5.60;2.78;;;;;;;-1.79;100.00;98476.75;5054119;28;20037;-57
2024/01/29 01:02:26;;;;;;;4.72;2.40;;;;;;;-1.80;100.00;98474.25;5043280;28;20051;-55
2024/01/29 01:04:53;;;;;;;4.95;2.28;;;;;;;-1.78;100.00;98478.41;5048381;28;20044;-56
2024/01/29 01:07:20;;;;;;;5.45;3.10;;;;;;;-1.76;100.00;98475.63;5041912;28;20049;-56
2024/01/29 01:09:46;;;;;;;5.18;2.50;;;;;;;-1.81;100.00;98476.03;5023467;28;20173;-56
2024/01/29 01:12:13;;;;;;;4.03;2.30;;;;;;;-1.81;100.00;98469.91;5027708;28;20040;-54
2024/01/29 01:14:40;;;;;;;6.05;2.53;;;;;;;-1.70;100.00;98475.03;5042644;28;20098;-54
2024/01/29 01:17:06;;;;;;;4.90;2.90;;;;;;;-1.67;100.00;98474.75;5045838;28;20041;-57
2024/01/29 01:19:33;;;;;;;5.32;2.35;;;;;;;-1.56;100.00;98476.38;5039087;28;20041;-56
2024/01/29 01:22:00;;;;;;;4.70;2.38;;;;;;;-1.39;100.00;98468.59;5048703;28;20528;-53
2024/01/29 01:24:26;;;;;;;5.97;2.60;;;;;;;-1.20;100.00;98471.16;5050160;28;20277;-54
2024/01/29 01:26:53;;;;;;;4.93;2.42;;;;;;;-0.98;100.00;98478.84;5039491;28;20778;-54
2024/01/29 01:29:19;;;;;;;4.53;2.40;;;;;;;-0.86;100.00;98479.47;5053052;28;20044;-57
2024/01/29 01:31:46;;;;;;;6.47;2.75;;;;;;;-0.93;100.00;98485.41;5046493;28;20052;-53
2024/01/29 01:34:13;;;;;;;7.95;3.65;;;;;;;-1.01;100.00;98482.66;5052088;28;20120;-54
2024/01/29 01:36:39;;;;;;;7.47;3.80;;;;;;;-1.12;100.00;98483.72;5047828;28;20056;-55
2024/01/29 01:39:06;;;;;;;6.97;2.65;;;;;;;-1.19;100.00;98483.47;5045028;28;20037;-54
2024/01/29 01:41:32;;;;;;;3.92;2.03;;;;;;;-1.28;100.00;98484.38;5052857;28;20062;-57
2024/01/29 01:43:59;;;;;;;3.47;2.00;;;;;;;-1.37;100.00;98477.28;5053708;28;20033;-53
2024/01/29 01:46:25;;;;;;;8.23;2.60;;;;;;;-1.39;100.00;98479.22;5043212;28;20041;-55
2024/01/29 01:48:54;;;;;;;5.70;2.50;;;;;;;-1.40;100.00;98481.03;5041314;28;20131;-56
2024/01/29 01:51:22;;;;;;;4.20;2.50;;;;;;;-1.47;100.00;98479.97;5044300;28;20111;-55
2024/01/29 01:53:52;;;;;;;4.20;2.08;;;;;;;-1.46;100.00;98482.50;5050446;28;20052;-56
2024/01/29 01:56:20;;;;;;;8.63;2.78;;;;;;;-1.41;100.00;98483.88;5028915;28;20048;-55
2024/01/29 01:58:47;;;;;;;5.72;2.63;;;;;;;-1.36;100.00;98485.09;5053381;28;20116;-55
2024/01/29 02:01:16;;;;;;;7.85;3.13;;;;;;;-1.09;100.00;98479.91;5033029;28;20537;-56
2024/01/29 02:03:43;;;;;;;8.43;3.25;;;;;;;-1.21;100.00;98476.63;5052055;28;20070;-57
2024/01/29 02:06:11;;;;;;;5.43;2.40;;;;;;;-1.36;100.00;98479.78;5030243;28;20044;-54
2024/01/29 02:08:38;;;;;;;4.60;2.47;;;;;;;-1.45;100.00;98478.00;5044947;28;20040;-53
2024/01/29 02:11:05;;;;;;;5.70;2.35;;;;;;;-1.43;100.00;98473.41;5037666;28;20060;-52
2024/01/29 02:13:31;;;;;;;4.50;2.67;;;;;;;-1.50;100.00;98483.78;5052515;28;20036;-53
2024/01/29 02:15:59;;;;;;;4.53;2.35;;;;;;;-1.60;100.00;98480.31;5034339;28;20051;-52
2024/01/29 02:18:26;;;;;;;8.65;2.60;;;;;;;-1.64;100.00;98481.56;5043344;28;20044;-51
2024/01/29 02:20:52;;;;;;;6.95;2.63;;;;;;;-1.62;100.00;98482.28;5039602;28;20106;-54
2024/01/29 02:23:19;;;;;;;5.05;2.75;;;;;;;-1.62;100.00;98483.09;5038190;28;20051;-52
2024/01/29 02:25:45;;;;;;;3.80;2.00;;;;;;;-1.59;100.00;98480.16;5039737;28;20055;-54
2024/01/29 02:28:12;;;;;;;4.97;2.45;;;;;;;-1.55;100.00;98479.88;5032560;28;20071;-56
2024/01/29 02:30:39;;;;;;;5.43;2.20;;;;;;;-1.60;100.00;98482.97;5051275;28;20584;-55
2024/01/29 02:33:05;;;;;;;4.47;2.45;;;;;;;-1.65;100.00;98478.09;5046777;28;20045;-56
2024/01/29 02:35:32;;;;;;;4.72;2.40;;;;;;;-1.63;100.00;98483.25;5042246;28;20052;-56
2024/01/29 02:37:59;;;;;;;4.70;2.13;;;;;;;-1.61;100.00;98473.31;5044480;28;20040;-55
2024/01/29 02:40:26;;;;;;;6.18;2.42;;;;;;;-1.50;100.00;98470.50;5038292;28;20048;-57
2024/01/29 02:42:52;;;;;;;5.03;2.40;;;;;;;-1.56;100.00;98479.03;5045499;28;20041;-55
2024/01/29 02:45:19;;;;;;;5.30;2.97;;;;;;;-1.58;100.00;98468.53;5053969;28;20037;-54
2024/01/29 02:47:45;;;;;;;4.05;1.98;;;;;;;-1.65;100.00;98470.13;5030863;28;20111;-56
2024/01/29 02:50:12;;;;;;;5.07;2.78;;;;;;;-1.64;100.00;98468.28;5049656;28;20272;-57
2024/01/29 02:52:38;;;;;;;5.32;2.25;;;;;;;-1.56;100.00;98471.06;5044763;28;20049;-55
2024/01/29 02:55:05;;;;;;;4.80;2.35;;;;;;;-1.52;100.00;98468.97;5049624;28;20053;-55
2024/01/29 02:57:32;;;;;;;5.10;2.72;;;;;;;-1.51;100.00;98470.63;5037519;28;20129;-55
2024/01/29 02:59:58;;;;;;;4.50;2.33;;;;;;;-1.42;100.00;98479.53;5049323;28;20033;-57
2024/01/29 03:02:25;;;;;;;5.07;2.53;;;;;;;-1.50;100.00;98478.47;5034465;28;20052;-56
2024/01/29 03:04:51;;;;;;;5.63;2.55;;;;;;;-1.61;100.00;98473.31;5050169;28;20587;-54
2024/01/29 03:07:18;;;;;;;4.90;2.67;;;;;;;-1.71;100.00;98465.38;5050361;28;20044;-58
2024/01/29 03:09:45;;;;;;;4.55;2.53;;;;;;;-1.61;100.00;98470.66;5046041;28;20041;-57
2024/01/29 03:12:12;;;;;;;5.22;2.70;;;;;;;-1.64;100.00;98471.81;5042002;28;20045;-57
2024/01/29 03:14:38;;;;;;;4.57;2.42;;;;;;;-1.59;100.00;98471.34;5040824;28;20045;-57
2024/01/29 03:17:05;;;;;;;4.18;2.53;;;;;;;-1.54;100.00;98469.13;5049994;28;20152;-52
2024/01/29 03:19:31;;;;;;;4.30;2.17;;;;;;;-1.57;100.00;98477.38;5051734;28;20107;-55
2024/01/29 03:21:58;;;;;;;4.95;2.70;;;;;;;-1.66;100.00;98479.06;5043707;28;20405;-56
2024/01/29 03:24:25;;;;;;;5.00;2.72;;;;;;;-1.68;100.00;98474.88;5046871;28;20056;-54
2024/01/29 03:26:52;;;;;;;5.10;2.72;;;;;;;-1.69;100.00;98476.72;5044387;28;20060;-54
2024/01/29 03:29:18;;;;;;;5.00;2.42;;;;;;;-1.45;100.00;98473.53;5043099;28;20043;-54
2024/01/29 03:31:45;;;;;;;8.65;2.47;;;;;;;-1.42;100.00;98474.22;5041154;28;20044;-57
2024/01/29 03:34:11;;;;;;;5.88;2.53;;;;;;;-1.59;100.00;98472.19;5048537;28;20060;-54
2024/01/29 03:36:38;;;;;;;3.97;2.22;;;;;;;-1.61;100.00;98468.00;5046636;28;20102;-57
2024/01/29 03:39:05;;;;;;;4.00;2.40;;;;;;;-1.50;100.00;98466.97;5043406;28;20036;-55
2024/01/29 03:41:34;;;;;;;4.32;2.05;;;;;;;-1.26;100.00;98471.75;5033803;28;20524;-52
2024/01/29 03:44:02;;;;;;;5.18;2.72;;;;;;;-1.19;100.00;98472.84;5053784;28;20037;-57
2024/01/29 03:46:28;;;;;;;5.15;2.60;;;;;;;-1.54;100.00;98476.22;5053295;28;20052;-53
2024/01/29 03:48:55;;;;;;;5.07;2.20;;;;;;;-1.41;100.00;98474.06;5045039;28;20491;-55
2024/01/29 03:51:22;;;;;;;8.35;2.83;;;;;;;-1.18;100.00;98469.19;5043010;28;20041;-54
2024/01/29 03:53:49;;;;;;;10.77;4.43;;;;;;;-1.05;100.00;98474.16;5049398;28;20547;-54
2024/01/29 03:56:16;;;;;;;11.30;4.38;;;;;;;-1.21;100.00;98469.47;5050606;28;20037;-51
2024/01/29 03:58:42;;;;;;;8.05;3.60;;;;;;;-1.47;100.00;98477.31;5051831;28;20064;-52
2024/01/29 04:01:09;;;;;;;6.90;2.70;;;;;;;-1.51;100.00;98475.94;5055542;28;20048;-56
2024/01/29 04:03:38;;;;;;;6.95;3.88;;;;;;;-1.51;100.00;98473.28;5049100;28;20808;-57
2024/01/29 04:06:06;;;;;;;6.60;3.33;;;;;;;-1.53;100.00;98467.28;5045251;28;20044;-55
2024/01/29 04:08:33;;;;;;;5.22;3.03;;;;;;;-1.45;100.00;98470.88;5047618;28;20043;-56
2024/01/29 04:11:00;;;;;;;5.38;3.00;;;;;;;-1.42;100.00;98474.22;5051386;28;20124;-56
2024/01/29 04:13:26;;;;;;;6.15;2.78;;;;;;;-1.38;100.00;98462.31;5051753;28;20208;-57
2024/01/29 04:15:53;;;;;;;5.07;2.80;;;;;;;-1.35;100.00;98470.00;5050131;28;20101;-55
2024/01/29 04:18:20;;;;;;;6.25;2.85;;;;;;;-1.21;100.00;98464.16;5040265;28;20044;-55
2024/01/29 04:20:48;;;;;;;5.43;2.45;;;;;;;-1.18;100.00;98468.38;5045723;28;20650;-55
2024/01/29 04:23:15;;;;;;;6.05;2.92;;;;;;;-1.19;100.00;98466.66;5043521;28;20440;-55
2024/01/29 04:25:41;;;;;;;5.13;2.80;;;;;;;-1.22;100.00;98459.03;5045804;28;20041;-55
2024/01/29 04:28:08;;;;;;;7.15;2.60;;;;;;;-1.36;100.00;98466.47;5048431;28;20064;-57
2024/01/29 04:30:34;;;;;;;4.80;2.85;;;;;;;-1.37;100.00;98464.81;5046803;28;20037;-55
2024/01/29 04:33:01;;;;;;;5.85;2.65;;;;;;;-1.52;100.00;98474.28;5042464;28;20052;-53
2024/01/29 04:35:28;;;;;;;4.70;2.42;;;;;;;-1.64;100.00;98470.97;5050730;28;20099;-53
2024/01/29 04:37:54;;;;;;;4.53;2.47;;;;;;;-1.66;100.00;98467.63;5042627;28;20043;-56
2024/01/29 04:40:22;;;;;;;5.15;2.75;;;;;;;-1.54;100.00;98470.91;5051060;28;20037;-54
2024/01/29 04:42:49;;;;;;;8.07;2.33;;;;;;;-1.52;100.00;98468.97;5051487;28;20041;-55
2024/01/29 04:45:16;;;;;;;4.18;2.08;;;;;;;-1.60;100.00;98469.69;5048627;28;20044;-55
2024/01/29 04:47:43;;;;;;;3.95;2.28;;;;;;;-1.55;100.00;98471.91;5044316;28;20033;-54
2024/01/29 04:50:09;;;;;;;5.85;2.30;;;;;;;-1.35;100.00;98464.69;5033840;28;20492;-53
2024/01/29 04:52:36;;;;;;;5.82;2.83;;;;;;;-1.31;100.00;98466.91;5047352;28;20045;-57
2024/01/29 04:55:03;;;;;;;5.35;2.60;;;;;;;-1.24;100.00;98476.91;5043808;28;20708;-56
2024/01/29 04:57:31;;;;;;;5.13;2.53;;;;;;;-1.35;100.00;98475.31;5052946;28;20037;-53
2024/01/29 04:59:58;;;;;;;5.10;2.53;;;;;;;-1.35;100.00;98480.63;5041539;28;20037;-56
2024/01/29 05:02:25;;;;;;;4.72;2.95;;;;;;;-1.27;100.00;98474.56;5044641;28;20103;-57
2024/01/29 05:04:51;;;;;;;4.35;2.53;;;;;;;-1.25;100.00;98477.91;5045332;28;20060;-54
2024/01/29 05:07:18;;;;;;;7.00;2.83;;;;;;;-1.18;100.00;98473.69;5048436;28;20041;-57
2024/01/29 05:09:45;;;;;;;9.45;3.53;;;;;;;-1.08;100.00;98476.25;5049077;28;20045;-51
2024/01/29 05:12:11;;;;;;;6.43;3.10;;;;;;;-1.06;100.00;98471.66;5047492;28;20099;-53
2024/01/29 05:14:38;;;;;;;6.22;2.92;;;;;;;-1.05;100.00;98473.31;5047719;28;20132;-52
2024/01/29 05:17:05;;;;;;;5.43;3.30;;;;;;;-1.14;100.00;98482.19;5047218;28;20106;-55
2024/01/29 05:19:31;;;;;;;5.35;3.20;;;;;;;-1.17;100.00;98475.34;5047024;28;20033;-52
2024/01/29 05:21:58;;;;;;;6.50;3.28;;;;;;;-1.07;100.00;98477.94;5051708;28;20558;-53
2024/01/29 05:24:28;;;;;;;8.70;3.40;;;;;;;-0.95;100.00;98476.72;5047826;28;20047;-52
2024/01/29 05:26:54;;;;;;;6.35;3.10;;;;;;;-0.86;100.00;98476.81;5043889;28;20044;-53
2024/01/29 05:29:22;;;;;;;7.45;3.13;;;;;;;-1.03;100.00;98479.31;5045194;28;20049;-51
2024/01/29 05:31:49;;;;;;;9.05;3.83;;;;;;;-1.12;100.00;98475.72;5042507;28;20079;-54
2024/01/29 05:34:15;;;;;;;10.75;3.95;;;;;;;-1.07;100.00;98477.94;5048074;28;20590;-57
2024/01/29 05:36:42;;;;;;;6.63;3.65;;;;;;;-0.98;100.00;98481.53;5047321;28;20071;-57
2024/01/29 05:39:09;;;;;;;7.35;3.70;;;;;;;-0.99;100.00;98485.16;5037151;28;20064;-55
2024/01/29 05:41:35;;;;;;;6.53;3.97;;;;;;;-0.90;100.00;98484.25;5044236;28;20243;-55
2024/01/29 05:44:02;;;;;;;8.50;4.20;;;;;;;-0.79;100.00;98486.72;5038374;28;20706;-56
2024/01/29 05:46:28;;;;;;;7.13;3.42;;;;;;;-0.81;100.00;98493.16;5036844;28;20045;-54
2024/01/29 05:48:55;;;;;;;6.90;2.97;;;;;;;-0.81;100.00;98490.50;5038279;28;20046;-56
2024/01/29 05:51:22;;;;;;;7.45;2.92;;;;;;;-0.86;100.00;98503.41;5038034;28;20046;-54
2024/01/29 05:53:48;;;;;;;5.65;3.10;;;;;;;-0.76;100.00;98506.84;5037569;28;20048;-55
2024/01/29 05:56:15;;;;;;;7.90;3.42;;;;;;;-1.01;100.00;98506.59;5034961;28;20575;-56
2024/01/29 05:58:44;;;;;;;9.90;3.83;;;;;;;-1.11;100.00;98500.50;5040929;28;20048;-55
2024/01/29 06:01:11;;;;;;;8.30;4.15;;;;;;;-1.02;100.00;98496.09;5044055;28;20044;-56
2024/01/29 06:03:38;;;;;;;6.47;3.58;;;;;;;-1.10;100.00;98494.19;5036615;28;20476;-59
2024/01/29 06:06:05;;;;;;;9.52;3.78;;;;;;;-0.95;100.00;98502.50;5037711;28;20076;-56
2024/01/29 06:08:32;;;;;;;8.02;3.78;;;;;;;-0.97;100.00;98501.78;5039023;28;20040;-59
2024/01/29 06:10:58;;;;;;;7.95;3.80;;;;;;;-0.87;100.00;98501.75;5036875;28;20108;-58
2024/01/29 06:13:26;;;;;;;7.07;3.28;;;;;;;-1.00;100.00;98502.13;5043037;28;20057;-56
2024/01/29 06:15:53;;;;;;;6.90;3.35;;;;;;;-1.19;100.00;98501.22;5035063;28;20043;-55
2024/01/29 06:18:20;;;;;;;6.07;3.22;;;;;;;-1.24;100.00;98500.84;5041214;28;20037;-58
2024/01/29 06:20:47;;;;;;;6.80;3.20;;;;;;;-1.28;100.00;98500.31;5039823;28;20114;-55
2024/01/29 06:23:15;;;;;;;5.18;2.92;;;;;;;-1.23;100.00;98506.00;5034597;28;20052;-56
2024/01/29 06:25:41;;;;;;;7.13;3.33;;;;;;;-1.19;100.00;98503.88;5040287;28;20065;-54
2024/01/29 06:28:08;;;;;;;6.10;3.65;;;;;;;-1.12;100.00;98512.09;5034646;28;20033;-55
2024/01/29 06:30:34;;;;;;;4.75;2.78;;;;;;;-1.14;100.00;98508.75;5040089;28;20529;-55
2024/01/29 06:33:01;;;;;;;7.05;3.10;;;;;;;-1.16;100.00;98505.41;5035535;28;20040;-53
2024/01/29 06:35:28;;;;;;;9.85;3.55;;;;;;;-1.22;100.00;98502.38;5033195;28;20690;-58
2024/01/29 06:37:54;;;;;;;7.35;2.88;;;;;;;-1.24;100.00;98503.50;5030956;28;20049;-58
2024/01/29 06:40:27;;;;;;;4.63;2.83;;;;;;;-1.08;100.00;98506.34;5045369;28;20528;-58
2024/01/29 06:42:57;;;;;;;5.72;2.88;;;;;;;-1.00;100.00;98504.78;5036249;28;20101;-58
2024/01/29 06:45:24;;;;;;;6.30;3.92;;;;;;;-0.96;100.00;98501.66;5038892;28;20131;-59
2024/01/29 06:47:50;;;;;;;6.93;2.70;;;;;;;-0.96;100.00;98509.63;5036091;28;20397;-59
2024/01/29 06:50:17;;;;;;;7.00;3.13;;;;;;;-1.01;100.00;98503.06;5032920;28;20472;-60
2024/01/29 06:52:43;;;;;;;5.55;2.72;;;;;;;-0.97;100.00;98509.78;5042297;28;20055;-60
2024/01/29 06:55:10;;;;;;;6.68;3.13;;;;;;;-0.88;100.00;98508.91;5036405;28;20041;-59
2024/01/29 06:57:37;;;;;;;7.03;3.38;;;;;;;-0.86;100.00;98514.03;5037090;28;20072;-60
2024/01/29 07:00:05;;;;;;;6.00;2.63;;;;;;;-0.80;100.00;98513.47;5036325;28;20045;-59
2024/01/29 07:02:32;;;;;;;4.80;2.50;;;;;;;-0.77;100.00;98509.66;5047365;28;20044;-60
2024/01/29 07:04:58;;;;;;;7.03;3.55;;;;;;;-0.72;100.00;98516.19;5042353;28;20049;-59
2024/01/29 07:07:25;;;;;;;6.55;3.10;;;;;;;-0.79;100.00;98521.28;5030482;28;20733;-60
2024/01/29 07:09:54;;;;;;;6.00;2.83;;;;;;;-0.75;100.00;98523.63;5042290;28;20036;-60
2024/01/29 07:12:21;;;;;;;8.27;3.10;;;;;;;-0.67;100.00;98524.56;5036760;28;21703;-60
2024/01/29 07:14:49;;;;;;;6.00;2.80;;;;;;;-0.57;100.00;98528.97;5035406;28;20052;-59
2024/01/29 07:17:16;;;;;;;7.78;3.58;;;;;;;-0.63;100.00;98529.59;5040276;28;20044;-59
2024/01/29 07:19:44;;;;;;;8.05;3.53;;;;;;;-0.69;100.00;98531.03;5030412;28;20053;-60
2024/01/29 07:22:14;;;;;;;7.90;4.05;;;;;;;-0.72;100.00;98536.63;5031901;28;20106;-61
2024/01/29 07:24:41;;;;;;;6.57;4.03;;;;;;;-0.72;100.00;98542.78;5039952;28;20041;-60
2024/01/29 07:27:08;;;;;;;7.95;4.15;;;;;;;-0.71;100.00;98538.28;5039970;28;20036;-60
2024/01/29 07:29:35;;;;;;;10.93;3.13;;;;;;;-0.70;100.00;98534.69;5039823;28;20835;-59
2024/01/29 07:32:02;;;;;;;8.88;3.20;;;;;;;-0.71;100.00;98544.47;5035244;28;20124;-60
2024/01/29 07:34:28;;;;;;;10.65;4.65;;;;;;;-0.76;100.00;98545.91;5027947;28;20048;-60
2024/01/29 07:36:55;;;;;;;6.40;3.53;;;;;;;-0.83;100.00;98543.00;5037421;28;20054;-60
2024/01/29 07:39:22;;;;;;;6.35;3.47;;;;;;;-0.75;100.00;98545.75;5041633;28;20037;-59
2024/01/29 07:41:49;;;;;;;8.02;3.90;;;;;;;-0.68;100.00;98546.84;4946379;28;2599307;-63
2024/01/29 07:44:16;;;;;;;7.82;3.53;;;;;;;-0.60;100.00;98555.88;5042755;28;20613;-63
2024/01/29 07:46:43;;;;;;;7.43;3.75;;;;;;;-0.60;100.00;98555.88;5032649;28;20045;-63
2024/01/29 07:49:10;;;;;;;8.02;3.20;;;;;;;-0.54;100.00;98556.13;5043534;28;20038;-59
2024/01/29 07:51:40;;;;;;;8.68;3.55;;;;;;;-0.38;100.00;98562.56;5029237;28;20138;-59
2024/01/29 07:54:07;;;;;;;6.85;3.65;;;;;;;-0.28;100.00;98562.50;5030144;28;20050;-60
2024/01/29 07:56:34;;;;;;;6.45;3.42;;;;;;;-0.22;100.00;98561.06;5037288;28;20393;-59
2024/01/29 07:59:00;;;;;;;6.15;3.65;;;;;;;-0.10;100.00;98564.31;5038344;28;20045;-58
2024/01/29 08:01:27;;;;;;;6.13;3.35;;;;;;;0.04;100.00;98554.94;5039090;28;20570;-57
2024/01/29 08:03:54;;;;;;;6.43;3.40;;;;;;;0.19;100.00;98566.69;5034570;28;20048;-59
2024/01/29 08:06:21;;;;;;;6.70;3.42;;;;;;;-0.09;100.00;98563.31;5031758;28;20092;-57
2024/01/29 08:08:47;;;;;;;6.95;3.60;;;;;;;-0.05;100.00;98565.53;5035155;28;20045;-58
2024/01/29 08:11:14;;;;;;;5.10;2.75;;;;;;;0.22;100.00;98566.38;5027880;28;20033;-59
2024/01/29 08:13:40;;;;;;;6.88;3.47;;;;;;;0.60;100.00;98568.81;5040152;28;20045;-59
2024/01/29 08:16:07;;;;;;;4.57;2.58;;;;;;;0.78;100.00;98568.72;5034474;28;20044;-60
2024/01/29 08:18:34;;;;;;;7.47;3.30;;;;;;;0.72;100.00;98566.69;5035805;28;20041;-58
2024/01/29 08:21:00;;;;;;;8.38;3.22;;;;;;;0.82;100.00;98569.25;5028314;28;20033;-57
2024/01/29 08:23:27;;;;;;;6.80;3.67;;;;;;;0.88;100.00;98571.28;5030696;28;20297;-59
2024/01/29 08:25:53;;;;;;;6.95;3.40;;;;;;;1.06;100.00;98573.00;5040753;28;20124;-57
2024/01/29 08:28:20;;;;;;;8.25;3.78;;;;;;;1.24;100.00;98574.72;5034720;28;20145;-59
2024/01/29 08:30:47;;;;;;;13.10;5.68;;;;;;;1.38;100.00;98584.81;5038487;28;20566;-58
2024/01/29 08:33:14;;;;;;;8.68;3.90;;;;;;;1.52;100.00;98580.66;5039708;28;20048;-59
2024/01/29 08:35:41;;;;;;;9.05;4.90;;;;;;;1.74;100.00;98581.03;5031940;28;20045;-58
2024/01/29 08:38:08;;;;;;;6.28;2.50;;;;;;;1.93;100.00;98587.06;5035789;28;20460;-59
2024/01/29 08:40:37;;;;;;;5.75;2.83;;;;;;;2.09;100.00;98588.91;5043266;28;20051;-59
2024/01/29 08:43:04;;;;;;;10.93;7.20;;;;;;;2.21;100.00;98592.06;5035692;28;20043;-60
2024/01/29 08:45:30;;;;;;;6.30;3.17;;;;;;;2.18;100.00;98595.91;5039489;28;20500;-59
2024/01/29 08:47:58;;;;;;;9.38;3.25;;;;;;;2.27;100.00;98595.91;5033905;28;20041;-59
2024/01/29 08:50:26;;;;;;;5.78;2.70;;;;;;;2.32;100.00;98601.59;5036036;28;20065;-59
2024/01/29 08:52:52;;;;;;;5.32;2.70;;;;;;;2.52;100.00;98603.91;5041216;28;20570;-60
2024/01/29 08:55:19;;;;;;;4.43;2.40;;;;;;;2.77;100.00;98603.84;5035266;28;20044;-59
2024/01/29 08:57:46;;;;;;;5.05;2.42;;;;;;;3.01;99.27;98596.75;5042230;28;20049;-60
2024/01/29 09:00:13;;;;;;;3.95;2.10;;;;;;;3.23;97.12;98593.34;5039845;28;20522;-59
2024/01/29 09:02:41;;;;;;;7.13;2.22;;;;;;;3.28;97.20;98597.34;5033818;28;20072;-60
2024/01/29 09:05:08;;;;;;;4.70;2.10;;;;;;;3.35;95.41;98596.44;5031150;28;20041;-59
2024/01/29 09:07:35;;;;;;;5.65;2.28;;;;;;;3.36;96.53;98586.59;5037475;28;20038;-59
2024/01/29 09:10:03;;;;;;;4.47;2.28;;;;;;;3.48;95.97;98600.41;5043430;28;20802;-60
2024/01/29 09:12:30;;;;;;;5.28;2.25;;;;;;;3.60;96.84;98601.69;5037323;28;20045;-59
2024/01/29 09:14:56;;;;;;;5.80;2.60;;;;;;;3.69;95.69;98601.63;5043760;28;20059;-59
2024/01/29 09:17:23;;;;;;;7.18;2.45;;;;;;;3.86;93.98;98602.34;5034320;28;20045;-60
2024/01/29 09:19:51;;;;;;;5.70;2.67;;;;;;;4.09;92.70;98606.91;5038532;28;20045;-60
2024/01/29 09:22:18;;;;;;;5.70;2.60;;;;;;;4.21;93.27;98602.78;5033961;28;20037;-59
2024/01/29 09:24:45;;;;;;;5.55;2.30;;;;;;;4.38;90.80;98608.81;5034838;28;20057;-59
2024/01/29 09:27:11;;;;;;;7.85;2.80;;;;;;;4.55;89.47;98611.34;5037852;28;20147;-60
2024/01/29 09:29:38;;;;;;;5.57;2.47;;;;;;;4.67;90.47;98609.91;5031140;28;20038;-59
2024/01/29 09:32:05;;;;;;;7.78;2.90;;;;;;;4.87;89.02;98611.22;5032747;28;20723;-59
2024/01/29 09:34:32;;;;;;;9.45;3.40;;;;;;;5.07;88.21;98614.19;5039012;28;20049;-60
2024/01/29 09:36:58;;;;;;;6.03;3.42;;;;;;;5.24;88.94;98606.78;5033605;28;20237;-59
2024/01/29 09:39:25;;;;;;;4.60;2.50;;;;;;;5.34;87.98;98610.00;5029052;28;20049;-59
2024/01/29 09:41:59;;;;;;;4.63;2.45;;;;;;;5.47;87.61;98620.09;5037946;28;20052;-58
2024/01/29 09:44:28;;;;;;;5.50;2.63;;;;;;;5.59;86.23;98612.38;5043244;28;20045;-60
2024/01/29 09:46:56;;;;;;;4.68;1.65;;;;;;;5.71;84.66;98615.38;5035891;28;20049;-59
2024/01/29 09:49:23;;;;;;;5.57;2.28;;;;;;;5.75;85.15;98618.50;5030508;28;20096;-58
2024/01/29 09:51:51;;;;;;;6.15;2.80;;;;;;;5.68;85.64;98610.38;5043018;28;20044;-60
2024/01/29 09:54:19;;;;;;;13.55;2.83;;;;;;;5.63;85.38;98614.69;5032967;28;20829;-60
2024/01/29 09:56:46;;;;;;;4.55;2.47;;;;;;;5.60;85.85;98619.41;5040354;28;20087;-59
2024/01/29 09:59:12;;;;;;;4.95;2.20;;;;;;;5.65;85.56;98618.00;5031545;28;20041;-59
2024/01/29 10:01:42;;;;;;;4.50;2.28;;;;;;;5.67;84.11;98619.47;5036160;28;20045;-60
2024/01/29 10:04:09;;;;;;;6.07;2.78;;;;;;;5.69;84.81;98622.81;5025957;28;20052;-57
2024/01/29 10:06:36;;;;;;;6.93;3.10;;;;;;;5.71;85.63;98622.59;5034063;28;20120;-59
2024/01/29 10:09:04;;;;;;;8.25;4.82;;;;;;;5.77;86.22;98627.22;5035595;28;20068;-57
2024/01/29 10:11:31;;;;;;;9.77;4.07;;;;;;;5.77;86.24;98627.22;5036141;28;20052;-59
2024/01/29 10:13:59;;;;;;;8.85;4.47;;;;;;;5.81;87.06;98631.22;5035452;28;20053;-61
2024/01/29 10:16:27;;;;;;;7.22;3.70;;;;;;;5.86;85.44;98625.25;5035887;28;20044;-60
2024/01/29 10:18:58;;;;;;;6.93;3.00;;;;;;;5.92;85.79;98623.66;5037970;28;20774;-59
2024/01/29 10:21:25;;;;;;;9.93;4.75;;;;;;;6.06;84.87;98625.50;5033104;28;20068;-61
2024/01/29 10:23:59;;;;;;;8.73;4.65;;;;;;;6.23;84.45;98623.38;5037495;28;20756;-57
2024/01/29 10:26:26;;;;;;;8.55;3.78;;;;;;;6.54;84.57;98628.59;5036402;28;20029;-60
2024/01/29 10:29:07;;;;;;;8.35;3.97;;;;;;;6.61;84.02;98624.97;5030407;28;20053;-58
2024/01/29 10:31:34;;;;;;;6.47;3.37;;;;;;;6.74;83.87;98617.97;5027303;28;20044;-60
2024/01/29 10:34:02;;;;;;;7.38;2.75;;;;;;;7.10;81.33;98616.13;5033791;28;20041;-58
2024/01/29 10:36:29;;;;;;;5.75;2.20;;;;;;;7.15;82.34;98625.28;5036355;28;20084;-58
2024/01/29 10:39:03;;;;;;;4.13;1.90;;;;;;;7.23;83.64;98620.78;5037406;28;20059;-57
2024/01/29 10:41:32;;;;;;;5.38;2.35;;;;;;;7.36;83.36;98614.63;5035763;28;20504;-58
2024/01/29 10:44:03;;;;;;;5.00;2.40;;;;;;;7.40;83.18;98614.03;5035045;28;20048;-58
2024/01/29 10:46:35;;;;;;;5.60;2.00;;;;;;;7.49;81.13;98614.66;5037147;28;20710;-59
2024/01/29 10:49:01;;;;;;;3.70;2.00;;;;;;;7.61;79.47;98611.41;5036422;28;20836;-57
2024/01/29 10:51:32;;;;;;;3.88;1.73;;;;;;;7.66;79.18;98608.94;5038693;28;20622;-57
2024/01/29 10:54:00;;;;;;;4.40;2.10;;;;;;;7.67;79.75;98611.41;5038808;28;20049;-58
2024/01/29 10:56:29;;;;;;;3.08;1.60;;;;;;;7.70;78.93;98609.38;5030692;28;20496;-60
2024/01/29 10:58:58;;;;;;;4.30;1.65;;;;;;;7.79;75.66;98608.16;5040683;28;20048;-56
2024/01/29 11:01:31;;;;;;;4.03;1.90;;;;;;;7.83;74.89;98606.72;5031236;28;20043;-58
2024/01/29 11:04:00;;;;;;;4.45;1.58;;;;;;;7.94;71.75;98599.88;5043553;28;20052;-58
2024/01/29 11:06:38;;;;;;;3.13;1.25;;;;;;;8.09;70.26;98597.00;5039978;28;20060;-56
2024/01/29 11:09:09;;;;;;;4.32;1.67;;;;;;;8.22;72.29;98596.16;5029053;28;20653;-58
2024/01/29 11:11:37;;;;;;;;;;;;;;;8.27;73.63;98590.16;5040768;28;20040;-60
2024/01/29 11:14:03;;;;;;;4.10;1.98;;;;;;;8.32;73.58;98588.50;5030330;28;19925;-57
2024/01/29 11:16:30;;;;;;;6.25;2.92;;;;;;;8.44;74.37;98588.72;5041448;28;20044;-58
2024/01/29 11:18:59;;;;;;;7.22;3.60;;;;;;;8.44;75.76;98588.72;5031303;28;20041;-58
2024/01/29 11:21:25;;;;;;;8.27;3.40;;;;;;;8.44;78.08;98587.91;5046396;28;20063;-58
2024/01/29 11:23:55;;;;;;;7.88;3.30;;;;;;;8.51;77.82;98586.00;5039401;28;20037;-57
2024/01/29 11:26:25;;;;;;;11.25;3.90;;;;;;;8.57;75.21;98587.94;5040089;28;20052;-59
2024/01/29 11:29:04;;;;;;;6.32;3.40;;;;;;;8.57;75.02;98581.69;5035558;28;20120;-58